• Join FlightAware (Why Join?)
  • Login
  • US Flag 
12:58AM EDT


 

Airport Tracker/Info


-or-


 

Live Flight TrackerFlight Track Log ✈ SKW7426 ✈ 26-Apr-2014 ✈ KINL - KMSP

Flight Track Log - Related Links

Times and Time Zones

All times are in EDT time to prevent confusion due to time zone crossing. See the SKW7426 flight status page for this flight to view local times or setup timezone preferences in your user account.

Time Position Orientation Groundspeed Altitude Reporting Facility
EDT Latitude Longitude Course Direction KTS MPH feet Rate Location/Type
08:13AM 48.5292 -93.3886 221° Southwest 163 188 3,600  Level Minneapolis Center
08:14AM 48.4614 -93.4075 190° South 241 277 6,300 2,820 Climbing Minneapolis Center
08:15AM 48.3828 -93.4292 190° South 263 303 9,400 2,580 Climbing Minneapolis Center
08:16AM 47.9997 -93.3728 195° South  Level Estimated
08:16AM 48.2967 -93.4542 191° South 290 334 11,600  Level Minneapolis Center
08:17AM 47.9054 -93.3680 191° South  Level Estimated
08:17AM 48.2022 -93.4842 192° South 319 367 13,700  Level Minneapolis Center
08:18AM 47.8337 -93.4594 221° Southwest  Level FlightAware Approximate
08:18AM 48.1028 -93.5150 192° South 344 396 15,900  Level Minneapolis Center
08:19AM 48.0014 -93.5464 192° South 366 421 17,800 1,860 Climbing Minneapolis Center
08:20AM 47.8939 -93.5778 191° South 385 443 19,800 1,740 Climbing Minneapolis Center
08:21AM 47.7847 -93.6106 191° South 397 457 21,400 1,440 Climbing Minneapolis Center
08:22AM 47.6719 -93.6428 191° South 410 472 22,800 1,380 Climbing Minneapolis Center
08:23AM 47.5331 -93.6842 191° South 424 488 24,300 1,320 Climbing Minneapolis Center
08:24AM 47.4161 -93.7186 191° South 429 494 25,600 780 Climbing Minneapolis Center
08:25AM 47.2972 -93.7528 191° South 433 498 26,000 180 Climbing Minneapolis Center
08:26AM 47.1706 -93.7914 192° South 459 528 26,000  Level Minneapolis Center
08:27AM 47.0400 -93.8303 191° South 474 545 26,000  Level Minneapolis Center
08:29AM 46.9097 -93.8672 191° South 478 550 26,000  Level Minneapolis Center
08:30AM 46.7842 -93.9017 191° South 469 540 26,000  Level Minneapolis Center
08:31AM 46.6644 -93.9378 192° South 448 516 26,000  Level Minneapolis Center
08:32AM 46.5239 -93.9769 191° South 435 501 26,000  Level Minneapolis Center
08:33AM 46.3986 -93.9347 167° South 459 528 26,000  Level Minneapolis Center
08:34AM 46.2753 -93.8825 164° South 464 534 26,000 -1,140 Level Minneapolis Center
08:35AM 46.1586 -93.8347 164° South 464 534 23,800 -2,460 Descending Minneapolis Center
08:36AM 46.0417 -93.7869 164° South 448 516 21,000 -2,760 Descending Minneapolis Center
08:37AM 45.9228 -93.7392 164° South 447 514 18,200 -2,640 Descending Minneapolis Center
08:38AM 45.8144 -93.6964 165° South 414 476 15,700 -2,520 Descending Minneapolis Center
08:39AM 45.7069 -93.6525 164° South 404 465 13,100 -2,340 Descending Minneapolis Center
08:40AM 45.5861 -93.6042 164° South 382 440 11,000 -1,080 Descending Minneapolis Center
08:41AM 45.4856 -93.5572 162° South 381 438 11,000 -240 Level Minneapolis Center
08:42AM 45.3931 -93.5061 159° South 350 403 10,600 -1,140 Descending Minneapolis Center
08:43AM 45.3125 -93.4758 165° South 306 352 8,700 -1,740 Descending Minneapolis Center
08:44AM 45.2375 -93.5072 196° South 286 329 7,100 -1,140 Descending Minneapolis Center
08:45AM 45.1683 -93.5264 191° South 258 297 6,400 -960 Descending Minneapolis Center
08:46AM 45.1078 -93.4792 151° Southeast 251 289 5,200 -900 Descending Minneapolis Center
08:47AM 45.0550 -93.4372 151° Southeast 223 257 4,600 -840 Descending Minneapolis Center
08:48AM 45.0136 -93.4042 151° Southeast 177 204 3,600 -660 Descending Minneapolis Center
08:49AM 44.9736 -93.3728 151° Southeast 169 194 3,300 -420 Descending Minneapolis Center
08:50AM 44.9356 -93.3183 135° Southeast 166 191 2,800 -720 Descending Minneapolis Center
08:51AM 44.9172 -93.2744 121° Southeast 132 152 1,900 -840 Descending Minneapolis Center
08:52AM 44.8994 -93.2356 123° Southeast 121 139 1,200 -720 Descending Minneapolis Center